Archival Weather

Norman Y Mineta San Jose Intl

San Jose, California (KSJC)

Report from: Sunday, January 28, 2024 6:53 AM PST
Current time: Friday, June 14, 2024 6:36 AM PDT

Current weather – Weather history – Daily summaries
Weather forecast

Temperature10.6°C (51.1°F)
Dew point8.3°C (46.9°F)
Winds 3 kts (1.5 m/s, 3.5 mph) Southwest (220°)
Visibility10 mi. (16.1 km)
Clouds Scattered clouds 10,000 ft. (3,048 m)
Altimeter30.16 in.Hg (1021 mB)
Relative humidity86 %
Density altitude-645 ft. (-197 m)
Sea-level pressure102.1 kPa (1021 mB, 30.16 in.Hg)
Remarks Automated weather observing station with precipitation discriminator
Pressure falling, then rising
Flight conditions Visual Meteorological Conditions
Raw dataKSJC 281453Z 22003KT 10SM SCT100 11/08 A3016 RMK AO2 SLP214 T01060083 55008
An error has occurred. This application may no longer respond until reloaded. Reload 🗙